sensor_id;sensor_type;location;lat;lon;timestamp;pressure;altitude;pressure_sealevel;temperature;humidity
59272;BME280;45043;51.068;7.026;2024-02-28T00:01:59;100791.03;;;5.75;60.57
59272;BME280;45043;51.068;7.026;2024-02-28T00:05:01;100799.97;;;5.73;60.72
59272;BME280;45043;51.068;7.026;2024-02-28T00:08:01;100800.78;;;5.73;60.24
59272;BME280;45043;51.068;7.026;2024-02-28T00:11:03;100807.38;;;5.68;60.60
59272;BME280;45043;51.068;7.026;2024-02-28T00:14:03;100808.41;;;5.55;60.78
59272;BME280;45043;51.068;7.026;2024-02-28T00:17:04;100816.09;;;5.47;61.20
59272;BME280;45043;51.068;7.026;2024-02-28T00:20:05;100811.25;;;5.43;61.64
59272;BME280;45043;51.068;7.026;2024-02-28T00:23:06;100821.31;;;5.47;61.33
59272;BME280;45043;51.068;7.026;2024-02-28T00:26:07;100819.66;;;5.46;61.20
59272;BME280;45043;51.068;7.026;2024-02-28T00:29:09;100817.72;;;5.48;61.51
59272;BME280;45043;51.068;7.026;2024-02-28T00:32:10;100822.72;;;5.51;61.37
59272;BME280;45043;51.068;7.026;2024-02-28T00:35:11;100821.78;;;5.32;61.64
59272;BME280;45043;51.068;7.026;2024-02-28T00:38:11;100824.22;;;5.23;62.51
59272;BME280;45043;51.068;7.026;2024-02-28T00:41:12;100831.91;;;5.25;62.25
59272;BME280;45043;51.068;7.026;2024-02-28T00:44:13;100825.03;;;5.24;62.36
59272;BME280;45043;51.068;7.026;2024-02-28T00:47:13;100829.97;;;5.38;62.29
59272;BME280;45043;51.068;7.026;2024-02-28T00:50:14;100830.13;;;5.46;62.17
59272;BME280;45043;51.068;7.026;2024-02-28T00:53:17;100829.88;;;5.49;62.55
59272;BME280;45043;51.068;7.026;2024-02-28T00:56:18;100822.72;;;5.51;62.42
59272;BME280;45043;51.068;7.026;2024-02-28T00:59:19;100820.28;;;5.60;61.95
59272;BME280;45043;51.068;7.026;2024-02-28T01:02:19;100820.19;;;5.71;62.13
59272;BME280;45043;51.068;7.026;2024-02-28T01:05:20;100827.28;;;5.80;61.99
59272;BME280;45043;51.068;7.026;2024-02-28T01:08:20;100819.59;;;5.88;62.07
59272;BME280;45043;51.068;7.026;2024-02-28T01:11:21;100819.66;;;5.98;61.61
59272;BME280;45043;51.068;7.026;2024-02-28T01:14:22;100828.66;;;6.15;61.42
59272;BME280;45043;51.068;7.026;2024-02-28T01:17:23;100816.84;;;6.20;61.46
59272;BME280;45043;51.068;7.026;2024-02-28T01:20:23;100807.84;;;6.23;60.65
59272;BME280;45043;51.068;7.026;2024-02-28T01:23:24;100803.06;;;6.28;60.88
59272;BME280;45043;51.068;7.026;2024-02-28T01:26:25;100807.31;;;6.29;60.95
59272;BME280;45043;51.068;7.026;2024-02-28T01:29:27;100817.25;;;6.25;60.54
59272;BME280;45043;51.068;7.026;2024-02-28T01:32:29;100806.19;;;6.22;60.83
59272;BME280;45043;51.068;7.026;2024-02-28T01:35:30;100803.84;;;6.19;60.30
59272;BME280;45043;51.068;7.026;2024-02-28T01:38:31;100803.16;;;6.17;60.62
59272;BME280;45043;51.068;7.026;2024-02-28T01:41:31;100805.78;;;6.17;60.55
59272;BME280;45043;51.068;7.026;2024-02-28T01:44:34;100814.72;;;6.14;60.54
59272;BME280;45043;51.068;7.026;2024-02-28T01:47:39;100815.44;;;6.16;60.54
59272;BME280;45043;51.068;7.026;2024-02-28T01:50:41;100809.53;;;6.24;60.52
59272;BME280;45043;51.068;7.026;2024-02-28T01:53:42;100805.69;;;6.28;60.64
59272;BME280;45043;51.068;7.026;2024-02-28T01:56:43;100806.91;;;6.24;59.97
59272;BME280;45043;51.068;7.026;2024-02-28T01:59:45;100808.25;;;6.18;60.47
59272;BME280;45043;51.068;7.026;2024-02-28T02:02:47;100813.25;;;6.21;60.56
59272;BME280;45043;51.068;7.026;2024-02-28T02:05:47;100814.06;;;6.22;60.23
59272;BME280;45043;51.068;7.026;2024-02-28T02:08:48;100813.97;;;6.33;60.12
59272;BME280;45043;51.068;7.026;2024-02-28T02:11:49;100819.34;;;6.41;60.19
59272;BME280;45043;51.068;7.026;2024-02-28T02:14:50;100814.56;;;6.46;60.42
59272;BME280;45043;51.068;7.026;2024-02-28T02:17:51;100814.28;;;6.49;60.35
59272;BME280;45043;51.068;7.026;2024-02-28T02:20:58;100812.22;;;6.53;60.31
59272;BME280;45043;51.068;7.026;2024-02-28T02:24:00;100809.31;;;6.56;60.07
59272;BME280;45043;51.068;7.026;2024-02-28T02:27:02;100809.31;;;6.56;59.80
59272;BME280;45043;51.068;7.026;2024-02-28T02:30:05;100800.50;;;6.57;60.25
59272;BME280;45043;51.068;7.026;2024-02-28T02:33:06;100805.84;;;6.56;59.98
59272;BME280;45043;51.068;7.026;2024-02-28T02:36:06;100818.16;;;6.55;59.98
59272;BME280;45043;51.068;7.026;2024-02-28T02:39:07;100805.75;;;6.57;59.92
59272;BME280;45043;51.068;7.026;2024-02-28T02:42:09;100812.91;;;6.55;60.08
59272;BME280;45043;51.068;7.026;2024-02-28T02:45:09;100813.59;;;6.57;60.22
59272;BME280;45043;51.068;7.026;2024-02-28T02:48:10;100810.16;;;6.57;59.83
59272;BME280;45043;51.068;7.026;2024-02-28T02:51:11;100810.56;;;6.62;60.17
59272;BME280;45043;51.068;7.026;2024-02-28T02:54:13;100811.81;;;6.67;60.09
59272;BME280;45043;51.068;7.026;2024-02-28T02:57:14;100814.97;;;6.71;59.81
59272;BME280;45043;51.068;7.026;2024-02-28T03:00:14;100825.75;;;6.78;60.14
59272;BME280;45043;51.068;7.026;2024-02-28T03:03:15;100831.44;;;6.83;60.22
59272;BME280;45043;51.068;7.026;2024-02-28T03:06:16;100832.69;;;6.88;59.97
59272;BME280;45043;51.068;7.026;2024-02-28T03:09:17;100832.41;;;6.91;59.81
59272;BME280;45043;51.068;7.026;2024-02-28T03:12:17;100829.78;;;6.91;59.68
59272;BME280;45043;51.068;7.026;2024-02-28T03:15:18;100830.75;;;6.90;59.71
59272;BME280;45043;51.068;7.026;2024-02-28T03:18:19;100825.06;;;6.85;59.81
59272;BME280;45043;51.068;7.026;2024-02-28T03:21:20;100834.19;;;6.81;59.68
59272;BME280;45043;51.068;7.026;2024-02-28T03:24:21;100832.53;;;6.80;60.08
59272;BME280;45043;51.068;7.026;2024-02-28T03:27:22;100838.31;;;6.74;59.99
59272;BME280;45043;51.068;7.026;2024-02-28T03:30:23;100836.94;;;6.70;59.87
59272;BME280;45043;51.068;7.026;2024-02-28T03:33:25;100831.97;;;6.67;60.47
59272;BME280;45043;51.068;7.026;2024-02-28T03:36:28;100841.91;;;6.73;60.35
59272;BME280;45043;51.068;7.026;2024-02-28T03:39:28;100848.25;;;6.70;60.60
59272;BME280;45043;51.068;7.026;2024-02-28T03:42:29;100852.28;;;6.65;60.53
59272;BME280;45043;51.068;7.026;2024-02-28T03:45:36;100846.59;;;6.60;60.72
59272;BME280;45043;51.068;7.026;2024-02-28T03:48:38;100834.16;;;6.52;60.68
59272;BME280;45043;51.068;7.026;2024-02-28T03:51:42;100839.09;;;6.36;60.90
59272;BME280;45043;51.068;7.026;2024-02-28T03:54:44;100854.34;;;6.21;61.52
59272;BME280;45043;51.068;7.026;2024-02-28T03:57:48;100863.44;;;6.17;61.25
59272;BME280;45043;51.068;7.026;2024-02-28T04:00:49;100863.84;;;6.12;61.32
59272;BME280;45043;51.068;7.026;2024-02-28T04:03:49;100857.75;;;6.12;61.30
59272;BME280;45043;51.068;7.026;2024-02-28T04:06:50;100860.53;;;6.10;61.83
59272;BME280;45043;51.068;7.026;2024-02-28T04:09:50;100864.06;;;5.99;62.06
59272;BME280;45043;51.068;7.026;2024-02-28T04:12:51;100859.63;;;6.00;62.11
59272;BME280;45043;51.068;7.026;2024-02-28T04:15:52;100862.31;;;6.10;61.63
59272;BME280;45043;51.068;7.026;2024-02-28T04:18:53;100866.59;;;6.11;61.56
59272;BME280;45043;51.068;7.026;2024-02-28T04:21:54;100870.47;;;6.16;61.69
59272;BME280;45043;51.068;7.026;2024-02-28T04:24:55;100863.88;;;6.22;61.36
59272;BME280;45043;51.068;7.026;2024-02-28T04:27:56;100865.81;;;6.30;61.54
59272;BME280;45043;51.068;7.026;2024-02-28T04:30:57;100872.75;;;6.31;61.53
59272;BME280;45043;51.068;7.026;2024-02-28T04:33:58;100861.84;;;6.35;61.55
59272;BME280;45043;51.068;7.026;2024-02-28T04:36:58;100873.31;;;6.44;61.72
59272;BME280;45043;51.068;7.026;2024-02-28T04:40:00;100875.28;;;6.51;61.33
59272;BME280;45043;51.068;7.026;2024-02-28T04:43:00;100882.47;;;6.59;61.47
59272;BME280;45043;51.068;7.026;2024-02-28T04:46:01;100877.22;;;6.59;61.37
59272;BME280;45043;51.068;7.026;2024-02-28T04:49:03;100880.53;;;6.51;61.47
59272;BME280;45043;51.068;7.026;2024-02-28T04:52:05;100877.75;;;6.43;61.44
59272;BME280;45043;51.068;7.026;2024-02-28T04:55:06;100886.97;;;6.38;61.36
59272;BME280;45043;51.068;7.026;2024-02-28T04:58:07;100892.84;;;6.20;61.62
59272;BME280;45043;51.068;7.026;2024-02-28T05:01:07;100891.78;;;6.02;62.37
59272;BME280;45043;51.068;7.026;2024-02-28T05:04:09;100897.44;;;5.97;62.63
59272;BME280;45043;51.068;7.026;2024-02-28T05:07:09;100899.47;;;5.94;62.62
59272;BME280;45043;51.068;7.026;2024-02-28T05:10:11;100902.03;;;5.84;62.35
59272;BME280;45043;51.068;7.026;2024-02-28T05:13:12;100909.19;;;5.82;62.84
59272;BME280;45043;51.068;7.026;2024-02-28T05:16:13;100898.75;;;6.13;62.84
59272;BME280;45043;51.068;7.026;2024-02-28T05:19:14;100906.91;;;6.50;62.63
59272;BME280;45043;51.068;7.026;2024-02-28T05:22:18;100923.66;;;6.78;62.37
59272;BME280;45043;51.068;7.026;2024-02-28T05:25:19;100905.78;;;7.12;62.28
59272;BME280;45043;51.068;7.026;2024-02-28T05:28:19;100909.09;;;7.34;62.11
59272;BME280;45043;51.068;7.026;2024-02-28T05:31:25;100916.59;;;7.58;61.45
59272;BME280;45043;51.068;7.026;2024-02-28T05:34:26;100922.63;;;7.87;61.30
59272;BME280;45043;51.068;7.026;2024-02-28T05:37:27;100931.38;;;8.15;61.13
59272;BME280;45043;51.068;7.026;2024-02-28T05:40:28;100926.66;;;8.19;60.42
59272;BME280;45043;51.068;7.026;2024-02-28T05:43:28;100923.28;;;8.36;60.57
59272;BME280;45043;51.068;7.026;2024-02-28T05:46:29;100919.91;;;8.54;60.35
59272;BME280;45043;51.068;7.026;2024-02-28T05:49:30;100923.47;;;8.62;59.76
59272;BME280;45043;51.068;7.026;2024-02-28T05:52:31;100922.91;;;8.59;59.14
59272;BME280;45043;51.068;7.026;2024-02-28T05:55:32;100918.72;;;8.66;58.43
59272;BME280;45043;51.068;7.026;2024-02-28T05:58:32;100921.97;;;8.78;58.81
59272;BME280;45043;51.068;7.026;2024-02-28T06:01:33;100934.13;;;8.88;58.32
59272;BME280;45043;51.068;7.026;2024-02-28T06:04:34;100933.81;;;8.91;58.11
59272;BME280;45043;51.068;7.026;2024-02-28T06:07:35;100948.09;;;9.16;58.09
59272;BME280;45043;51.068;7.026;2024-02-28T06:10:36;100939.91;;;9.37;57.66
59272;BME280;45043;51.068;7.026;2024-02-28T06:13:40;100951.88;;;9.50;57.55
59272;BME280;45043;51.068;7.026;2024-02-28T06:16:41;100964.72;;;9.53;57.35
59272;BME280;45043;51.068;7.026;2024-02-28T06:19:41;100961.44;;;9.51;57.04
59272;BME280;45043;51.068;7.026;2024-02-28T06:22:42;100956.16;;;9.51;57.11
59272;BME280;45043;51.068;7.026;2024-02-28T06:25:43;100966.41;;;9.54;56.59
59272;BME280;45043;51.068;7.026;2024-02-28T06:28:44;100972.66;;;9.35;56.66
59272;BME280;45043;51.068;7.026;2024-02-28T06:31:51;100972.97;;;9.22;56.22
59272;BME280;45043;51.068;7.026;2024-02-28T06:34:52;100973.88;;;9.13;56.33
59272;BME280;45043;51.068;7.026;2024-02-28T06:37:53;100973.69;;;8.97;56.07
59272;BME280;45043;51.068;7.026;2024-02-28T06:40:54;100984.66;;;8.92;56.60
59272;BME280;45043;51.068;7.026;2024-02-28T06:43:55;100975.94;;;8.91;56.38
59272;BME280;45043;51.068;7.026;2024-02-28T06:46:55;100982.72;;;8.94;55.93
59272;BME280;45043;51.068;7.026;2024-02-28T06:49:56;100989.72;;;9.03;55.96
59272;BME280;45043;51.068;7.026;2024-02-28T06:52:56;100986.47;;;8.91;56.13
59272;BME280;45043;51.068;7.026;2024-02-28T06:55:57;100986.63;;;8.62;56.17
59272;BME280;45043;51.068;7.026;2024-02-28T06:58:57;100980.72;;;8.51;56.37
59272;BME280;45043;51.068;7.026;2024-02-28T07:01:58;100979.09;;;8.67;56.49
59272;BME280;45043;51.068;7.026;2024-02-28T07:04:59;100991.53;;;8.75;56.30
59272;BME280;45043;51.068;7.026;2024-02-28T07:08:00;100995.44;;;8.99;56.16
59272;BME280;45043;51.068;7.026;2024-02-28T07:11:04;100991.59;;;9.21;56.21
59272;BME280;45043;51.068;7.026;2024-02-28T07:14:05;100984.03;;;9.35;55.70
59272;BME280;45043;51.068;7.026;2024-02-28T07:17:07;100993.63;;;9.27;55.59
59272;BME280;45043;51.068;7.026;2024-02-28T07:20:09;100984.78;;;9.46;55.11
59272;BME280;45043;51.068;7.026;2024-02-28T07:23:10;100989.38;;;9.61;54.83
59272;BME280;45043;51.068;7.026;2024-02-28T07:26:18;100996.53;;;9.69;54.75
59272;BME280;45043;51.068;7.026;2024-02-28T07:29:19;101008.13;;;9.76;54.51
59272;BME280;45043;51.068;7.026;2024-02-28T07:32:20;101003.22;;;9.81;54.06
59272;BME280;45043;51.068;7.026;2024-02-28T07:35:20;101004.56;;;9.85;53.75
59272;BME280;45043;51.068;7.026;2024-02-28T07:38:22;101002.66;;;9.96;53.90
59272;BME280;45043;51.068;7.026;2024-02-28T07:41:27;101009.50;;;10.06;53.25
59272;BME280;45043;51.068;7.026;2024-02-28T07:44:28;101010.25;;;10.17;53.29
59272;BME280;45043;51.068;7.026;2024-02-28T07:47:31;101011.28;;;9.98;52.79
59272;BME280;45043;51.068;7.026;2024-02-28T07:50:32;101012.28;;;9.61;52.99
59272;BME280;45043;51.068;7.026;2024-02-28T07:53:33;101016.59;;;9.34;53.27
59272;BME280;45043;51.068;7.026;2024-02-28T07:56:34;101019.03;;;9.28;53.55
59272;BME280;45043;51.068;7.026;2024-02-28T07:59:42;101015.31;;;9.11;53.73
59272;BME280;45043;51.068;7.026;2024-02-28T08:02:43;101015.56;;;8.90;53.94
59272;BME280;45043;51.068;7.026;2024-02-28T08:05:44;101019.00;;;8.63;54.28
59272;BME280;45043;51.068;7.026;2024-02-28T08:08:45;101021.66;;;8.63;54.66
59272;BME280;45043;51.068;7.026;2024-02-28T08:11:47;101021.53;;;8.64;54.86
59272;BME280;45043;51.068;7.026;2024-02-28T08:14:47;101018.19;;;8.62;54.81
59272;BME280;45043;51.068;7.026;2024-02-28T08:17:48;101026.47;;;8.67;55.00
59272;BME280;45043;51.068;7.026;2024-02-28T08:20:48;101028.97;;;8.69;55.06
59272;BME280;45043;51.068;7.026;2024-02-28T08:23:50;101038.91;;;8.75;54.68
59272;BME280;45043;51.068;7.026;2024-02-28T08:26:51;101040.84;;;8.83;54.97
59272;BME280;45043;51.068;7.026;2024-02-28T08:29:51;101042.94;;;8.79;54.82
59272;BME280;45043;51.068;7.026;2024-02-28T08:32:53;101045.66;;;8.50;54.81
59272;BME280;45043;51.068;7.026;2024-02-28T08:35:54;101048.56;;;8.37;55.16
59272;BME280;45043;51.068;7.026;2024-02-28T08:38:54;101045.31;;;8.16;55.25
59272;BME280;45043;51.068;7.026;2024-02-28T08:41:55;101043.25;;;8.10;55.76
59272;BME280;45043;51.068;7.026;2024-02-28T08:44:56;101044.59;;;8.04;55.55
59272;BME280;45043;51.068;7.026;2024-02-28T08:48:02;101052.94;;;7.90;56.14
59272;BME280;45043;51.068;7.026;2024-02-28T08:51:03;101059.56;;;7.75;56.39
59272;BME280;45043;51.068;7.026;2024-02-28T08:54:05;101054.31;;;7.65;56.28
59272;BME280;45043;51.068;7.026;2024-02-28T08:57:05;101061.47;;;7.63;56.58
59272;BME280;45043;51.068;7.026;2024-02-28T09:00:07;101064.53;;;7.58;56.50
59272;BME280;45043;51.068;7.026;2024-02-28T09:03:09;101059.53;;;7.55;57.00
59272;BME280;45043;51.068;7.026;2024-02-28T09:06:10;101061.59;;;7.52;56.86
59272;BME280;45043;51.068;7.026;2024-02-28T09:09:11;101059.13;;;7.60;56.79
59272;BME280;45043;51.068;7.026;2024-02-28T09:12:12;101066.75;;;7.72;56.75
59272;BME280;45043;51.068;7.026;2024-02-28T09:15:13;101063.19;;;7.83;56.80
59272;BME280;45043;51.068;7.026;2024-02-28T09:18:14;101070.09;;;7.84;57.05
59272;BME280;45043;51.068;7.026;2024-02-28T09:21:16;101071.47;;;7.88;57.17
59272;BME280;45043;51.068;7.026;2024-02-28T09:24:17;101081.13;;;7.78;57.56
59272;BME280;45043;51.068;7.026;2024-02-28T09:27:18;101080.16;;;7.69;57.65
59272;BME280;45043;51.068;7.026;2024-02-28T09:30:18;101082.38;;;7.64;57.77
59272;BME280;45043;51.068;7.026;2024-02-28T09:33:19;101080.84;;;7.62;57.75
59272;BME280;45043;51.068;7.026;2024-02-28T09:36:21;101073.66;;;7.54;57.70
59272;BME280;45043;51.068;7.026;2024-02-28T09:39:22;101077.22;;;7.43;58.31
59272;BME280;45043;51.068;7.026;2024-02-28T09:42:24;101079.66;;;7.35;58.46
59272;BME280;45043;51.068;7.026;2024-02-28T09:45:27;101089.13;;;7.47;58.25
59272;BME280;45043;51.068;7.026;2024-02-28T09:48:31;101088.16;;;7.48;58.09
59272;BME280;45043;51.068;7.026;2024-02-28T09:51:35;101084.91;;;7.35;58.28
59272;BME280;45043;51.068;7.026;2024-02-28T09:54:37;101069.88;;;7.37;58.12
59272;BME280;45043;51.068;7.026;2024-02-28T09:57:38;101069.94;;;7.26;58.67
59272;BME280;45043;51.068;7.026;2024-02-28T10:00:41;101074.84;;;7.40;58.49
59272;BME280;45043;51.068;7.026;2024-02-28T10:03:44;101079.44;;;7.48;58.41
59272;BME280;45043;51.068;7.026;2024-02-28T10:06:46;101075.97;;;7.47;58.44
59272;BME280;45043;51.068;7.026;2024-02-28T10:09:50;101069.50;;;7.61;58.10
59272;BME280;45043;51.068;7.026;2024-02-28T10:12:50;101075.47;;;7.73;58.08
59272;BME280;45043;51.068;7.026;2024-02-28T10:15:52;101073.97;;;7.80;57.74
59272;BME280;45043;51.068;7.026;2024-02-28T10:18:54;101068.16;;;7.86;57.50
59272;BME280;45043;51.068;7.026;2024-02-28T10:21:55;101067.31;;;8.05;56.92
59272;BME280;45043;51.068;7.026;2024-02-28T10:24:57;101055.69;;;8.27;56.62
59272;BME280;45043;51.068;7.026;2024-02-28T10:28:00;101067.81;;;8.48;56.65
59272;BME280;45043;51.068;7.026;2024-02-28T10:31:02;101062.78;;;8.64;55.68
59272;BME280;45043;51.068;7.026;2024-02-28T10:34:03;101054.59;;;8.67;55.74
59272;BME280;45043;51.068;7.026;2024-02-28T10:37:05;101065.94;;;8.77;55.42
59272;BME280;45043;51.068;7.026;2024-02-28T10:40:08;101063.13;;;8.79;54.96
59272;BME280;45043;51.068;7.026;2024-02-28T10:43:10;101060.56;;;8.97;54.91
59272;BME280;45043;51.068;7.026;2024-02-28T10:46:14;101057.38;;;9.30;54.11
59272;BME280;45043;51.068;7.026;2024-02-28T10:49:14;101071.88;;;9.44;53.49
59272;BME280;45043;51.068;7.026;2024-02-28T10:52:17;101052.41;;;9.55;53.25
59272;BME280;45043;51.068;7.026;2024-02-28T10:55:24;101069.13;;;9.46;52.55
59272;BME280;45043;51.068;7.026;2024-02-28T10:58:32;101068.78;;;9.31;52.59
59272;BME280;45043;51.068;7.026;2024-02-28T11:01:44;101072.47;;;9.38;52.64
59272;BME280;45043;51.068;7.026;2024-02-28T11:04:46;101074.06;;;9.49;52.38
59272;BME280;45043;51.068;7.026;2024-02-28T11:07:52;101067.09;;;9.57;52.23
59272;BME280;45043;51.068;7.026;2024-02-28T11:10:57;101067.84;;;9.85;51.79
59272;BME280;45043;51.068;7.026;2024-02-28T11:13:59;101070.78;;;9.82;51.50
59272;BME280;45043;51.068;7.026;2024-02-28T11:17:05;101069.50;;;9.69;51.51
59272;BME280;45043;51.068;7.026;2024-02-28T11:20:13;101063.91;;;9.54;51.65
59272;BME280;45043;51.068;7.026;2024-02-28T11:23:13;101070.75;;;9.47;51.57
59272;BME280;45043;51.068;7.026;2024-02-28T11:26:17;101062.72;;;9.66;51.38
59272;BME280;45043;51.068;7.026;2024-02-28T11:29:26;101055.94;;;9.81;50.97
59272;BME280;45043;51.068;7.026;2024-02-28T11:32:31;101059.59;;;9.53;51.18
59272;BME280;45043;51.068;7.026;2024-02-28T11:35:33;101058.25;;;9.49;51.33
59272;BME280;45043;51.068;7.026;2024-02-28T11:38:34;101045.63;;;9.70;50.86
59272;BME280;45043;51.068;7.026;2024-02-28T11:41:38;101043.28;;;9.85;50.44
59272;BME280;45043;51.068;7.026;2024-02-28T11:44:41;101041.16;;;10.06;50.23
59272;BME280;45043;51.068;7.026;2024-02-28T11:47:43;101038.81;;;10.21;49.79
59272;BME280;45043;51.068;7.026;2024-02-28T11:50:45;101037.44;;;10.17;49.27
59272;BME280;45043;51.068;7.026;2024-02-28T11:53:45;101035.13;;;9.96;48.59
59272;BME280;45043;51.068;7.026;2024-02-28T11:56:47;101033.09;;;10.08;48.85
59272;BME280;45043;51.068;7.026;2024-02-28T11:59:49;101029.63;;;10.33;48.41
59272;BME280;45043;51.068;7.026;2024-02-28T12:02:49;101017.19;;;10.44;47.81
59272;BME280;45043;51.068;7.026;2024-02-28T12:05:52;101021.31;;;10.46;47.68
59272;BME280;45043;51.068;7.026;2024-02-28T12:08:53;101008.06;;;10.38;47.68
59272;BME280;45043;51.068;7.026;2024-02-28T12:11:55;101002.38;;;10.51;47.46
59272;BME280;45043;51.068;7.026;2024-02-28T12:14:59;101004.47;;;10.73;46.86
59272;BME280;45043;51.068;7.026;2024-02-28T12:18:07;100992.22;;;10.98;46.12
59272;BME280;45043;51.068;7.026;2024-02-28T12:21:09;100987.28;;;11.03;45.79
59272;BME280;45043;51.068;7.026;2024-02-28T12:24:11;100992.31;;;11.39;45.50
59272;BME280;45043;51.068;7.026;2024-02-28T12:27:12;100994.50;;;11.76;45.19
59272;BME280;45043;51.068;7.026;2024-02-28T12:30:13;100977.78;;;11.92;44.51
59272;BME280;45043;51.068;7.026;2024-02-28T12:33:15;100984.06;;;11.99;44.23
59272;BME280;45043;51.068;7.026;2024-02-28T12:36:16;100974.63;;;12.21;43.76
59272;BME280;45043;51.068;7.026;2024-02-28T12:39:17;100968.00;;;12.34;43.09
59272;BME280;45043;51.068;7.026;2024-02-28T12:42:18;100971.97;;;12.21;42.68
59272;BME280;45043;51.068;7.026;2024-02-28T12:45:19;100967.63;;;12.45;42.31
59272;BME280;45043;51.068;7.026;2024-02-28T12:48:20;100957.22;;;12.83;42.32
59272;BME280;45043;51.068;7.026;2024-02-28T12:51:42;100951.00;;;12.67;41.92
59272;BME280;45043;51.068;7.026;2024-02-28T12:54:45;100953.44;;;12.77;41.56
59272;BME280;45043;51.068;7.026;2024-02-28T12:57:46;100946.97;;;13.11;40.94
59272;BME280;45043;51.068;7.026;2024-02-28T13:00:46;100946.41;;;13.46;39.64
59272;BME280;45043;51.068;7.026;2024-02-28T13:03:47;100942.16;;;13.60;39.33
59272;BME280;45043;51.068;7.026;2024-02-28T13:06:49;100939.22;;;13.55;39.01
59272;BME280;45043;51.068;7.026;2024-02-28T13:09:49;100934.97;;;13.69;38.68
59272;BME280;45043;51.068;7.026;2024-02-28T13:12:50;100933.69;;;13.65;38.38
59272;BME280;45043;51.068;7.026;2024-02-28T13:15:51;100936.84;;;13.60;38.01
59272;BME280;45043;51.068;7.026;2024-02-28T13:18:52;100930.38;;;13.63;37.07
59272;BME280;45043;51.068;7.026;2024-02-28T13:21:53;100927.94;;;13.76;36.06
59272;BME280;45043;51.068;7.026;2024-02-28T13:24:54;100918.78;;;13.79;35.36
59272;BME280;45043;51.068;7.026;2024-02-28T13:27:57;100927.78;;;14.07;35.11
59272;BME280;45043;51.068;7.026;2024-02-28T13:31:01;100918.00;;;14.08;34.89
59272;BME280;45043;51.068;7.026;2024-02-28T13:34:02;100905.00;;;14.13;35.42
59272;BME280;45043;51.068;7.026;2024-02-28T13:37:04;100920.56;;;14.16;35.26
59272;BME280;45043;51.068;7.026;2024-02-28T13:40:06;100915.34;;;14.22;34.98
59272;BME280;45043;51.068;7.026;2024-02-28T13:43:07;100904.16;;;14.12;34.56
59272;BME280;45043;51.068;7.026;2024-02-28T13:46:08;100912.53;;;14.24;34.22
59272;BME280;45043;51.068;7.026;2024-02-28T13:49:12;100909.47;;;14.12;34.38
59272;BME280;45043;51.068;7.026;2024-02-28T13:52:16;100911.16;;;13.98;34.56
59272;BME280;45043;51.068;7.026;2024-02-28T13:55:18;100904.34;;;13.81;34.21
59272;BME280;45043;51.068;7.026;2024-02-28T13:58:19;100904.53;;;13.80;34.58
59272;BME280;45043;51.068;7.026;2024-02-28T14:01:22;100898.66;;;13.69;34.74
59272;BME280;45043;51.068;7.026;2024-02-28T14:04:25;100897.38;;;13.65;34.59
59272;BME280;45043;51.068;7.026;2024-02-28T14:07:30;100907.63;;;13.68;34.64
59272;BME280;45043;51.068;7.026;2024-02-28T14:10:32;100902.66;;;13.65;34.41
59272;BME280;45043;51.068;7.026;2024-02-28T14:13:35;100904.09;;;13.53;34.03
59272;BME280;45043;51.068;7.026;2024-02-28T14:16:42;100906.69;;;13.61;33.68
59272;BME280;45043;51.068;7.026;2024-02-28T14:19:46;100899.00;;;13.66;33.31
59272;BME280;45043;51.068;7.026;2024-02-28T14:22:49;100897.91;;;13.75;32.58
59272;BME280;45043;51.068;7.026;2024-02-28T14:25:51;100891.91;;;13.82;32.69
59272;BME280;45043;51.068;7.026;2024-02-28T14:28:53;100881.94;;;13.84;32.71
59272;BME280;45043;51.068;7.026;2024-02-28T14:31:56;100890.25;;;13.81;32.99
59272;BME280;45043;51.068;7.026;2024-02-28T14:34:56;100888.53;;;13.88;33.22
59272;BME280;45043;51.068;7.026;2024-02-28T14:37:57;100889.63;;;14.08;32.75
59272;BME280;45043;51.068;7.026;2024-02-28T14:40:59;100885.69;;;14.04;31.95
59272;BME280;45043;51.068;7.026;2024-02-28T14:44:01;100891.28;;;13.80;31.75
59272;BME280;45043;51.068;7.026;2024-02-28T14:47:04;100896.09;;;13.61;31.85
59272;BME280;45043;51.068;7.026;2024-02-28T14:50:07;100884.91;;;13.51;32.28
59272;BME280;45043;51.068;7.026;2024-02-28T14:53:12;100889.03;;;13.45;32.25
59272;BME280;45043;51.068;7.026;2024-02-28T14:56:13;100883.72;;;13.54;32.42
59272;BME280;45043;51.068;7.026;2024-02-28T14:59:18;100879.88;;;13.71;31.98
59272;BME280;45043;51.068;7.026;2024-02-28T15:02:19;100877.63;;;13.83;32.11
59272;BME280;45043;51.068;7.026;2024-02-28T15:05:21;100876.53;;;14.07;32.24
59272;BME280;45043;51.068;7.026;2024-02-28T15:08:23;100881.38;;;14.03;31.86
59272;BME280;45043;51.068;7.026;2024-02-28T15:11:24;100873.97;;;13.84;31.96
59272;BME280;45043;51.068;7.026;2024-02-28T15:14:24;100875.63;;;13.85;31.98
59272;BME280;45043;51.068;7.026;2024-02-28T15:17:25;100876.91;;;13.89;32.01
59272;BME280;45043;51.068;7.026;2024-02-28T15:20:26;100878.28;;;13.99;31.37
59272;BME280;45043;51.068;7.026;2024-02-28T15:23:28;100877.00;;;14.25;30.95
59272;BME280;45043;51.068;7.026;2024-02-28T15:26:30;100876.78;;;14.27;31.24
59272;BME280;45043;51.068;7.026;2024-02-28T15:29:32;100875.72;;;14.06;31.38
59272;BME280;45043;51.068;7.026;2024-02-28T15:32:34;100871.84;;;13.94;31.71
59272;BME280;45043;51.068;7.026;2024-02-28T15:35:35;100872.41;;;14.04;31.94
59272;BME280;45043;51.068;7.026;2024-02-28T15:38:37;100873.78;;;14.15;31.78
59272;BME280;45043;51.068;7.026;2024-02-28T15:41:38;100875.00;;;14.63;31.29
59272;BME280;45043;51.068;7.026;2024-02-28T15:44:41;100866.78;;;14.73;31.86
59272;BME280;45043;51.068;7.026;2024-02-28T15:47:41;100870.75;;;14.33;32.52
59272;BME280;45043;51.068;7.026;2024-02-28T15:50:42;100859.25;;;14.11;33.00
59272;BME280;45043;51.068;7.026;2024-02-28T15:53:43;100861.78;;;13.89;33.72
59272;BME280;45043;51.068;7.026;2024-02-28T15:56:43;100865.00;;;13.85;34.19
59272;BME280;45043;51.068;7.026;2024-02-28T15:59:44;100858.97;;;14.06;33.80